createdAt,value
2019-04-29T00:00:53.743Z,2.63
2019-04-29T00:03:23.432Z,2.20
2019-04-29T00:05:53.106Z,2.00
2019-04-29T00:08:23.080Z,2.40
2019-04-29T00:10:52.355Z,3.40
2019-04-29T00:13:21.643Z,3.87
2019-04-29T00:16:25.241Z,2.83
2019-04-29T00:19:26.145Z,2.77
2019-04-29T00:21:55.625Z,4.30
2019-04-29T00:24:24.976Z,6.63
2019-04-29T00:26:54.319Z,5.27
2019-04-29T00:29:23.955Z,3.20
2019-04-29T00:31:53.668Z,4.77
2019-04-29T00:34:22.955Z,10.07
2019-04-29T00:37:02.472Z,2.77
2019-04-29T00:39:50.444Z,4.63
2019-04-29T00:42:35.062Z,2.73
2019-04-29T00:45:05.249Z,2.43
2019-04-29T00:47:34.776Z,2.73
2019-04-29T00:50:04.117Z,2.40
2019-04-29T00:52:33.743Z,2.10
2019-04-29T00:55:08.699Z,1.80
2019-04-29T00:57:38.274Z,2.87
2019-04-29T01:00:08.867Z,1.80
2019-04-29T01:02:38.783Z,2.20
2019-04-29T01:05:08.072Z,2.77
2019-04-29T01:07:37.617Z,2.03
2019-04-29T01:10:07.271Z,2.20
2019-04-29T01:12:37.474Z,2.30
2019-04-29T01:15:06.792Z,2.90
2019-04-29T01:17:36.079Z,2.17
2019-04-29T01:20:05.627Z,2.20
2019-04-29T01:22:35.286Z,3.57
2019-04-29T01:25:05.306Z,2.00
2019-04-29T01:27:40.559Z,2.60
2019-04-29T01:30:11.507Z,2.33
2019-04-29T01:32:41.136Z,2.17
2019-04-29T01:35:10.452Z,3.30
2019-04-29T01:37:41.937Z,4.17
2019-04-29T01:40:33.548Z,2.07
2019-04-29T01:43:03.324Z,2.20
2019-04-29T01:45:32.578Z,4.17
2019-04-29T01:48:02.454Z,2.87
2019-04-29T01:50:32.062Z,2.17
2019-04-29T01:53:01.588Z,2.53
2019-04-29T01:55:31.588Z,3.53
2019-04-29T01:58:00.874Z,3.03
2019-04-29T02:00:30.516Z,3.57
2019-04-29T02:02:59.833Z,4.23
2019-04-29T02:05:29.094Z,3.43
2019-04-29T02:07:58.514Z,2.93
2019-04-29T02:10:33.026Z,2.37
2019-04-29T02:13:02.287Z,2.47
2019-04-29T02:15:31.620Z,2.20
2019-04-29T02:18:01.176Z,2.80
2019-04-29T02:20:30.715Z,5.10
2019-04-29T02:23:19.226Z,4.10
2019-04-29T02:25:48.823Z,5.53
2019-04-29T02:28:18.140Z,3.73
2019-04-29T02:30:49.036Z,3.47
2019-04-29T02:33:18.370Z,3.03
2019-04-29T02:35:47.959Z,2.63
2019-04-29T02:38:28.283Z,3.77
2019-04-29T02:41:19.445Z,2.73
2019-04-29T02:43:50.349Z,2.97
2019-04-29T02:46:19.641Z,3.63
2019-04-29T02:48:48.997Z,2.43
2019-04-29T02:51:37.292Z,2.20
2019-04-29T02:54:06.628Z,2.10
2019-04-29T02:56:36.048Z,2.43
2019-04-29T02:59:06.334Z,3.20
2019-04-29T03:01:46.378Z,5.67
2019-04-29T03:04:21.356Z,3.67
2019-04-29T03:06:50.710Z,2.53
2019-04-29T03:09:20.322Z,4.40
2019-04-29T03:11:49.652Z,2.53
2019-04-29T03:14:18.955Z,4.40
2019-04-29T03:16:48.289Z,5.50
2019-04-29T03:19:22.772Z,4.83
2019-04-29T03:21:57.171Z,4.63
2019-04-29T03:24:26.710Z,3.50
2019-04-29T03:26:56.298Z,4.53
2019-04-29T03:29:25.983Z,6.00
2019-04-29T03:31:56.422Z,5.97
2019-04-29T03:34:27.278Z,2.93
2019-04-29T03:36:56.647Z,5.17
2019-04-29T03:39:26.227Z,3.53
2019-04-29T03:41:55.613Z,3.53
2019-04-29T03:44:24.948Z,2.67
2019-04-29T03:46:54.273Z,2.77
2019-04-29T03:49:23.604Z,2.93
2019-04-29T03:51:53.109Z,5.23
2019-04-29T03:54:22.523Z,7.30
2019-04-29T03:56:51.808Z,2.80
2019-04-29T03:59:21.479Z,3.03
2019-04-29T04:02:16.768Z,4.60
2019-04-29T04:05:08.853Z,3.87
2019-04-29T04:07:43.895Z,4.63
2019-04-29T04:10:13.527Z,7.00
2019-04-29T04:12:42.893Z,3.63
2019-04-29T04:15:13.295Z,8.93
2019-04-29T04:17:58.513Z,5.70
2019-04-29T04:20:28.012Z,7.40
2019-04-29T04:22:57.416Z,5.20
2019-04-29T04:25:26.793Z,3.50
2019-04-29T04:27:56.312Z,4.87
2019-04-29T04:30:25.622Z,9.27
2019-04-29T04:32:55.141Z,3.67
2019-04-29T04:35:24.426Z,8.00
2019-04-29T04:37:53.697Z,5.97
2019-04-29T04:40:28.945Z,6.27
2019-04-29T04:42:58.708Z,7.77
2019-04-29T04:45:28.004Z,6.90
2019-04-29T04:47:57.653Z,5.90
2019-04-29T04:50:26.898Z,7.23
2019-04-29T04:52:56.323Z,4.97
2019-04-29T04:55:28.402Z,6.80
2019-04-29T04:57:57.732Z,5.07
2019-04-29T05:00:28.555Z,148.60
2019-04-29T05:02:57.855Z,5.70
2019-04-29T05:05:27.156Z,5.10
2019-04-29T05:07:56.842Z,5.43
2019-04-29T05:10:26.136Z,7.43
2019-04-29T05:12:56.115Z,7.53
2019-04-29T05:15:25.651Z,8.13
2019-04-29T05:17:55.266Z,5.93
2019-04-29T05:20:24.881Z,8.07
2019-04-29T05:23:00.269Z,4.87
2019-04-29T05:25:30.870Z,8.07
2019-04-29T05:28:00.725Z,7.57
2019-04-29T05:30:30.031Z,5.17
2019-04-29T05:32:59.861Z,10.67
2019-04-29T05:35:40.245Z,8.97
2019-04-29T05:38:46.558Z,7.83
2019-04-29T05:41:16.155Z,6.73
2019-04-29T05:44:05.258Z,9.17
2019-04-29T05:46:39.474Z,6.83
2019-04-29T05:49:10.870Z,12.50
2019-04-29T05:52:01.968Z,6.60
2019-04-29T05:54:31.615Z,6.67
2019-04-29T05:57:00.268Z,6.70
2019-04-29T05:59:29.879Z,8.53
2019-04-29T06:01:59.167Z,9.90
2019-04-29T06:04:28.850Z,8.23
2019-04-29T06:06:58.271Z,12.90
2019-04-29T06:09:27.536Z,11.40
2019-04-29T06:11:57.088Z,14.40
2019-04-29T06:14:26.428Z,14.63
2019-04-29T06:16:57.459Z,8.93
2019-04-29T06:19:27.049Z,10.10
2019-04-29T06:21:56.336Z,14.33
2019-04-29T06:24:25.868Z,8.30
2019-04-29T06:26:55.755Z,9.40
2019-04-29T06:29:25.123Z,8.83
2019-04-29T06:31:54.443Z,10.80
2019-04-29T06:34:23.988Z,9.83
2019-04-29T06:36:53.257Z,8.07
2019-04-29T06:39:22.551Z,10.60
2019-04-29T06:41:51.872Z,10.13
2019-04-29T06:44:21.144Z,9.40
2019-04-29T06:46:54.628Z,10.27
2019-04-29T06:49:21.974Z,12.00
2019-04-29T06:51:51.871Z,8.20
2019-04-29T06:54:21.148Z,7.40
2019-04-29T06:56:50.692Z,14.13
2019-04-29T06:59:20.243Z,10.30
2019-04-29T07:01:49.779Z,11.87
2019-04-29T07:04:19.669Z,10.27
2019-04-29T07:06:57.139Z,7.97
2019-04-29T07:09:20.008Z,10.37
2019-04-29T07:11:49.597Z,9.77
2019-04-29T07:14:18.903Z,11.33
2019-04-29T07:16:48.600Z,7.40
2019-04-29T07:19:17.911Z,7.87
2019-04-29T07:21:49.914Z,10.93
2019-04-29T07:24:20.284Z,8.47
2019-04-29T07:26:49.467Z,12.57
2019-04-29T07:29:19.127Z,13.23
2019-04-29T07:31:48.792Z,11.50
2019-04-29T07:34:18.073Z,10.53
2019-04-29T07:36:47.358Z,12.03
2019-04-29T07:39:16.898Z,11.20
2019-04-29T07:41:49.571Z,11.37
2019-04-29T07:44:18.439Z,10.90
2019-04-29T07:46:59.286Z,16.27
2019-04-29T07:49:24.796Z,13.57
2019-04-29T07:51:54.392Z,14.43
2019-04-29T07:54:23.661Z,13.70
2019-04-29T07:56:52.927Z,19.10
2019-04-29T07:59:22.480Z,18.37
2019-04-29T08:01:55.675Z,19.77
2019-04-29T08:04:23.533Z,17.60
2019-04-29T08:06:53.748Z,19.30
2019-04-29T08:09:23.368Z,16.73
2019-04-29T08:11:53.351Z,14.30
2019-04-29T08:14:23.143Z,18.23
2019-04-29T08:16:52.491Z,19.90
2019-04-29T08:19:24.761Z,16.73
2019-04-29T08:21:52.800Z,21.70
2019-04-29T08:24:22.332Z,20.10
2019-04-29T08:26:51.890Z,30.20
2019-04-29T08:29:21.275Z,23.37
2019-04-29T08:31:51.763Z,27.03
2019-04-29T08:34:23.184Z,20.87
2019-04-29T08:36:52.914Z,19.97
2019-04-29T08:39:25.053Z,20.43
2019-04-29T08:41:53.307Z,21.13
2019-04-29T08:44:30.467Z,22.37
2019-04-29T08:47:07.313Z,24.87
2019-04-29T08:49:36.900Z,22.53
2019-04-29T08:52:06.425Z,19.37
2019-04-29T08:54:37.176Z,22.07
2019-04-29T08:57:06.888Z,21.53
2019-04-29T08:59:36.486Z,21.30
2019-04-29T09:02:10.174Z,17.47
2019-04-29T09:04:37.001Z,29.33
2019-04-29T09:07:12.831Z,27.43
2019-04-29T09:09:38.182Z,23.07
2019-04-29T09:12:07.715Z,23.33
2019-04-29T09:14:37.337Z,24.80
2019-04-29T09:17:19.833Z,24.50
2019-04-29T09:19:39.512Z,17.30
2019-04-29T09:22:10.872Z,17.83
2019-04-29T09:24:43.615Z,17.60
2019-04-29T09:27:17.140Z,16.60
2019-04-29T09:29:46.787Z,15.93
2019-04-29T09:32:16.073Z,19.40
2019-04-29T09:34:45.972Z,21.20
2019-04-29T09:37:18.608Z,16.67
2019-04-29T09:39:47.367Z,16.00
2019-04-29T09:42:56.901Z,15.03
2019-04-29T09:45:31.195Z,13.93
2019-04-29T09:48:00.748Z,15.77
2019-04-29T09:50:34.203Z,17.43
2019-04-29T09:53:01.989Z,13.23
2019-04-29T09:55:31.286Z,16.77
2019-04-29T09:58:00.972Z,15.33
2019-04-29T10:00:49.448Z,17.57
2019-04-29T10:03:36.396Z,10.87
2019-04-29T10:06:14.771Z,15.17
2019-04-29T10:08:44.072Z,14.20
2019-04-29T10:11:13.815Z,14.83
2019-04-29T10:13:43.412Z,16.77
2019-04-29T10:16:25.027Z,19.43
2019-04-29T10:19:05.224Z,19.40
2019-04-29T10:21:33.461Z,18.47
2019-04-29T10:24:02.846Z,14.93
2019-04-29T10:26:32.123Z,15.40
2019-04-29T10:29:06.198Z,13.63
2019-04-29T10:31:35.813Z,15.50
2019-04-29T10:34:06.536Z,14.33
2019-04-29T10:36:35.925Z,15.57
2019-04-29T10:39:36.908Z,12.73
2019-04-29T10:42:06.892Z,14.23
2019-04-29T10:44:57.915Z,13.63
2019-04-29T10:47:55.309Z,12.93
2019-04-29T10:50:30.907Z,11.10
2019-04-29T10:53:01.415Z,13.53
2019-04-29T10:55:31.804Z,13.83
2019-04-29T10:58:01.210Z,12.43
2019-04-29T11:01:36.931Z,11.17
2019-04-29T11:04:08.743Z,14.53
2019-04-29T11:06:37.385Z,13.33
2019-04-29T11:09:28.727Z,12.87
2019-04-29T11:11:58.010Z,13.13
2019-04-29T11:14:27.384Z,11.90
2019-04-29T11:16:57.040Z,9.80
2019-04-29T11:19:26.396Z,8.80
2019-04-29T11:21:55.856Z,10.80
2019-04-29T11:24:41.437Z,14.70
2019-04-29T11:27:18.357Z,13.63
2019-04-29T11:29:47.655Z,13.17
2019-04-29T11:32:24.917Z,12.13
2019-04-29T11:35:06.128Z,18.23
2019-04-29T11:37:36.034Z,18.67
2019-04-29T11:40:05.854Z,12.13
2019-04-29T11:42:36.432Z,15.47
2019-04-29T11:45:09.024Z,13.20
2019-04-29T11:47:38.658Z,14.80
2019-04-29T11:50:17.789Z,16.17
2019-04-29T11:52:47.292Z,15.63
2019-04-29T11:55:18.424Z,12.07
2019-04-29T11:57:58.723Z,15.13
2019-04-29T12:00:57.000Z,15.27
2019-04-29T12:03:30.747Z,14.63
2019-04-29T12:06:02.666Z,12.93
2019-04-29T12:08:32.873Z,12.43
2019-04-29T12:11:07.121Z,10.60
2019-04-29T12:13:46.131Z,10.93
2019-04-29T12:16:24.438Z,14.43
2019-04-29T12:18:58.551Z,11.67
2019-04-29T12:21:30.135Z,9.83
2019-04-29T12:24:01.755Z,10.47
2019-04-29T12:26:35.586Z,14.47
2019-04-29T12:29:02.336Z,12.37
2019-04-29T12:31:51.029Z,10.87
2019-04-29T12:34:32.550Z,10.13
2019-04-29T12:37:01.839Z,17.10
2019-04-29T12:39:56.082Z,10.10
2019-04-29T12:42:55.365Z,10.33
2019-04-29T12:45:30.381Z,11.20
2019-04-29T12:48:00.126Z,15.93
2019-04-29T12:50:29.422Z,11.53
2019-04-29T12:52:58.778Z,9.07
2019-04-29T12:55:44.308Z,9.83
2019-04-29T12:58:06.440Z,11.60
2019-04-29T13:00:47.290Z,11.17
2019-04-29T13:03:23.823Z,17.23
2019-04-29T13:06:14.857Z,12.10
2019-04-29T13:08:47.447Z,11.53
2019-04-29T13:11:19.234Z,10.27
2019-04-29T13:13:51.415Z,9.70
2019-04-29T13:16:55.786Z,9.27
2019-04-29T13:19:33.220Z,10.77
2019-04-29T13:22:02.832Z,11.00
2019-04-29T13:24:32.185Z,11.97
2019-04-29T13:27:15.217Z,12.33
2019-04-29T13:29:36.169Z,11.73
2019-04-29T13:32:07.884Z,13.80
2019-04-29T13:34:41.451Z,13.10
2019-04-29T13:37:18.814Z,11.30
2019-04-29T13:39:43.855Z,12.20
2019-04-29T13:42:15.805Z,11.00
2019-04-29T13:45:04.489Z,13.23
2019-04-29T13:47:33.027Z,10.87
2019-04-29T13:50:18.125Z,12.87
2019-04-29T13:52:38.716Z,10.03
2019-04-29T13:55:17.169Z,11.30
2019-04-29T13:57:39.378Z,12.80
2019-04-29T14:00:26.764Z,13.00
2019-04-29T14:03:00.068Z,12.30
2019-04-29T14:05:36.699Z,9.43
2019-04-29T14:08:04.095Z,10.63
2019-04-29T14:10:33.604Z,10.70
2019-04-29T14:13:10.487Z,12.77
2019-04-29T14:15:38.135Z,10.03
2019-04-29T14:18:06.945Z,10.47
2019-04-29T14:20:36.667Z,10.27
2019-04-29T14:23:06.543Z,11.90
2019-04-29T14:25:36.146Z,13.23
2019-04-29T14:28:05.757Z,9.93
2019-04-29T14:30:39.381Z,10.73
2019-04-29T14:33:09.736Z,8.77
2019-04-29T14:36:00.983Z,12.43
2019-04-29T14:38:30.779Z,11.03
2019-04-29T14:41:00.042Z,10.07
2019-04-29T14:43:57.279Z,9.97
2019-04-29T14:46:57.695Z,9.63
2019-04-29T14:49:30.690Z,10.40
2019-04-29T14:52:03.240Z,11.53
2019-04-29T14:54:31.683Z,16.43
2019-04-29T14:57:01.279Z,13.77
2019-04-29T14:59:30.591Z,9.63
2019-04-29T15:02:16.105Z,11.63
2019-04-29T15:04:43.755Z,12.70
2019-04-29T15:07:13.439Z,10.93
2019-04-29T15:09:58.503Z,14.10
2019-04-29T15:12:52.148Z,12.37
2019-04-29T15:15:36.377Z,12.07
2019-04-29T15:18:45.447Z,10.47
2019-04-29T15:21:05.741Z,12.33
2019-04-29T15:23:32.992Z,12.17
2019-04-29T15:26:02.351Z,13.83
2019-04-29T15:28:33.277Z,11.53
2019-04-29T15:31:02.832Z,11.13
2019-04-29T15:33:34.671Z,12.23
2019-04-29T15:36:03.213Z,11.00
2019-04-29T15:38:34.755Z,14.27
2019-04-29T15:41:05.757Z,7.77
2019-04-29T15:43:47.273Z,9.00
2019-04-29T15:46:10.744Z,7.40
2019-04-29T15:48:37.452Z,9.83
2019-04-29T15:51:09.232Z,7.00
2019-04-29T15:53:38.998Z,6.93
2019-04-29T15:56:27.181Z,6.33
2019-04-29T15:58:39.625Z,6.93
2019-04-29T16:01:14.514Z,6.60
2019-04-29T16:03:41.174Z,5.27
2019-04-29T16:06:21.406Z,5.07
2019-04-29T16:08:58.886Z,5.73
2019-04-29T16:11:51.688Z,4.63
2019-04-29T16:14:22.794Z,4.80
2019-04-29T16:16:52.204Z,4.50
2019-04-29T16:19:21.763Z,4.43
2019-04-29T16:21:51.303Z,6.07
2019-04-29T16:24:37.536Z,8.23
2019-04-29T16:26:53.743Z,4.87
2019-04-29T16:29:22.650Z,4.53
2019-04-29T16:31:54.906Z,3.33
2019-04-29T16:34:23.544Z,5.80
2019-04-29T16:36:52.801Z,5.63
2019-04-29T16:39:22.371Z,4.93
2019-04-29T16:42:07.999Z,3.90
2019-04-29T16:44:37.647Z,6.60
2019-04-29T16:47:13.061Z,7.67
2019-04-29T16:49:40.627Z,6.33
2019-04-29T16:52:09.885Z,4.63
2019-04-29T16:54:39.503Z,4.80
2019-04-29T16:57:09.073Z,4.77
2019-04-29T16:59:38.320Z,4.03
2019-04-29T17:02:08.362Z,8.23
2019-04-29T17:04:38.153Z,3.93
2019-04-29T17:07:13.035Z,4.60
2019-04-29T17:10:03.278Z,4.77
2019-04-29T17:12:46.291Z,6.50
2019-04-29T17:15:24.681Z,4.77
2019-04-29T17:17:47.139Z,3.47
2019-04-29T17:20:16.769Z,3.57
2019-04-29T17:22:46.327Z,5.60
2019-04-29T17:25:16.995Z,4.23
2019-04-29T17:28:12.076Z,4.50
2019-04-29T17:30:59.821Z,4.53
2019-04-29T17:33:36.610Z,4.50
2019-04-29T17:36:06.626Z,4.77
2019-04-29T17:38:36.293Z,4.73
2019-04-29T17:41:05.578Z,5.07
2019-04-29T17:43:57.069Z,5.77
2019-04-29T17:47:00.668Z,5.77
2019-04-29T17:49:42.462Z,14.70
2019-04-29T17:52:18.092Z,11.07
2019-04-29T17:54:49.619Z,5.67
2019-04-29T17:57:36.298Z,5.00
2019-04-29T18:00:44.223Z,4.47
2019-04-29T18:03:43.210Z,5.83
2019-04-29T18:06:24.729Z,6.67
2019-04-29T18:09:15.694Z,4.60
2019-04-29T18:11:51.525Z,7.60
2019-04-29T18:14:16.069Z,7.10
2019-04-29T18:16:47.799Z,5.67
2019-04-29T18:19:34.898Z,7.13
2019-04-29T18:22:20.635Z,5.20
2019-04-29T18:25:12.730Z,5.23
2019-04-29T18:27:42.939Z,10.87
2019-04-29T18:30:15.804Z,6.90
2019-04-29T18:32:46.696Z,9.20
2019-04-29T18:35:15.382Z,7.70
2019-04-29T18:37:45.708Z,6.73
2019-04-29T18:40:16.098Z,7.03
2019-04-29T18:42:48.447Z,8.60
2019-04-29T18:45:16.694Z,6.90
2019-04-29T18:47:45.989Z,7.73
2019-04-29T18:50:15.903Z,9.50
2019-04-29T18:52:45.994Z,11.10
2019-04-29T18:55:15.322Z,8.13
2019-04-29T18:57:44.653Z,9.33
2019-04-29T19:00:19.053Z,9.13
2019-04-29T19:02:52.301Z,9.10
2019-04-29T19:05:40.574Z,11.97
2019-04-29T19:08:14.279Z,7.10
2019-04-29T19:10:40.850Z,8.37
2019-04-29T19:13:16.534Z,11.03
2019-04-29T19:15:47.002Z,9.73
2019-04-29T19:18:17.526Z,8.27
2019-04-29T19:20:47.864Z,5.93
2019-04-29T19:23:21.767Z,8.53
2019-04-29T19:25:49.788Z,8.63
2019-04-29T19:28:29.560Z,10.30
2019-04-29T19:30:49.011Z,11.50
2019-04-29T19:33:18.693Z,10.20
2019-04-29T19:35:48.230Z,9.83
2019-04-29T19:38:17.550Z,10.63
2019-04-29T19:40:46.851Z,10.53
2019-04-29T19:43:18.875Z,8.90
2019-04-29T19:45:49.086Z,9.13
2019-04-29T19:48:22.554Z,10.77
2019-04-29T19:51:13.015Z,11.70
2019-04-29T19:53:21.280Z,16.53
2019-04-29T19:56:01.421Z,11.30
2019-04-29T19:58:28.605Z,11.80
2019-04-29T20:00:55.043Z,15.73
2019-04-29T20:03:35.046Z,16.37
2019-04-29T20:06:08.414Z,12.77
2019-04-29T20:08:48.299Z,13.77
2019-04-29T20:11:12.414Z,13.93
2019-04-29T20:13:34.654Z,15.40
2019-04-29T20:16:25.007Z,14.73
2019-04-29T20:19:12.198Z,18.53
2019-04-29T20:21:36.652Z,17.63
2019-04-29T20:24:09.652Z,15.70
2019-04-29T20:26:37.626Z,20.40
2019-04-29T20:29:07.389Z,16.40
2019-04-29T20:31:39.007Z,22.93
2019-04-29T20:34:08.486Z,20.60
2019-04-29T20:36:41.751Z,21.00
2019-04-29T20:39:15.143Z,25.97
2019-04-29T20:41:43.074Z,22.57
2019-04-29T20:44:11.388Z,23.10
2019-04-29T20:46:45.842Z,22.80
2019-04-29T20:49:12.223Z,24.73
2019-04-29T20:51:49.537Z,24.30
2019-04-29T20:54:19.440Z,23.90
2019-04-29T20:56:48.789Z,25.43
2019-04-29T20:59:18.220Z,26.50
2019-04-29T21:01:52.459Z,25.67
2019-04-29T21:04:31.032Z,29.73
2019-04-29T21:07:00.477Z,26.83
2019-04-29T21:09:27.488Z,30.23
2019-04-29T21:12:04.693Z,26.63
2019-04-29T21:14:56.925Z,29.30
2019-04-29T21:17:31.251Z,27.57
2019-04-29T21:19:56.801Z,29.00
2019-04-29T21:22:26.122Z,29.53
2019-04-29T21:24:57.522Z,27.47
2019-04-29T21:27:28.729Z,29.70
2019-04-29T21:29:58.433Z,29.43
2019-04-29T21:32:30.542Z,28.70
2019-04-29T21:35:20.743Z,31.17
2019-04-29T21:38:09.278Z,29.87
2019-04-29T21:40:46.553Z,30.83
2019-04-29T21:43:20.227Z,29.77
2019-04-29T21:45:49.775Z,28.27
2019-04-29T21:48:19.096Z,28.93
2019-04-29T21:50:48.702Z,28.63
2019-04-29T21:53:18.044Z,27.87
2019-04-29T21:55:47.620Z,32.33
2019-04-29T21:58:17.158Z,30.50
2019-04-29T22:00:46.826Z,26.43
2019-04-29T22:03:19.760Z,27.33
2019-04-29T22:05:49.214Z,30.93
2019-04-29T22:08:20.769Z,25.13
2019-04-29T22:10:49.947Z,27.63
2019-04-29T22:13:19.235Z,28.13
2019-04-29T22:15:48.807Z,31.97
2019-04-29T22:18:18.359Z,27.37
2019-04-29T22:20:48.183Z,28.80
2019-04-29T22:23:17.590Z,23.13
2019-04-29T22:25:48.275Z,24.23
2019-04-29T22:28:19.666Z,24.07
2019-04-29T22:30:49.766Z,25.27
2019-04-29T22:33:20.109Z,26.40
2019-04-29T22:35:49.456Z,24.40
2019-04-29T22:38:18.963Z,28.23
2019-04-29T22:40:49.925Z,28.40
2019-04-29T22:43:25.438Z,25.17
2019-04-29T22:45:55.102Z,25.57
2019-04-29T22:48:25.059Z,23.67
2019-04-29T22:50:55.593Z,27.43
2019-04-29T22:53:25.254Z,26.87
2019-04-29T22:55:56.391Z,27.30
2019-04-29T22:58:25.578Z,25.17
2019-04-29T23:00:54.905Z,29.27
2019-04-29T23:03:24.461Z,27.43
2019-04-29T23:05:55.949Z,27.40
2019-04-29T23:08:29.673Z,28.63
2019-04-29T23:10:59.790Z,31.23
2019-04-29T23:13:31.119Z,26.33
2019-04-29T23:16:02.147Z,27.37
2019-04-29T23:18:40.963Z,28.70
2019-04-29T23:21:29.484Z,29.97
2019-04-29T23:24:30.267Z,29.03
2019-04-29T23:26:59.636Z,34.40
2019-04-29T23:29:29.547Z,30.27
2019-04-29T23:31:59.797Z,30.63
2019-04-29T23:34:30.345Z,28.27
2019-04-29T23:37:00.130Z,28.17
2019-04-29T23:39:29.472Z,29.27
2019-04-29T23:41:58.776Z,29.67
2019-04-29T23:44:28.451Z,32.07
2019-04-29T23:46:57.843Z,30.20
2019-04-29T23:49:27.151Z,30.57
2019-04-29T23:51:56.437Z,29.40
2019-04-29T23:54:26.249Z,33.20
2019-04-29T23:57:23.689Z,32.53
